カラチ の空港の天気 - METARとTAF

ジンナー国際空港(カラチ) ( OPKC / KHI ) - パキスタン Karachi
飛行場実況気象(Metar)
観測時間11/17 22:25 PKT (11/17 17:25 UTC)
風向・風速静穏 0m/s
視程5000m
天気現象
なし
気温23℃
湿度53%
気圧1011hPa
METAROPKC 171725Z 00000KT 5000 FU NSC 23/13 Q1011 NOSIG
過去の天気等 Google飛行場航空写真 Wunderground天気予報

過去48時間のMETAR

飛行場予報(TAF)
発表時間: 11/17 21:00 PKT (11/17 16:00 UTC)
予報対象時間: 17日23時 PKT ~ 19日5時 PKT
風向・風速西 3m/s
視程5000m
天気現象煙霧
なし
18日6時 PKT ~ 18日10時 PKT に一時的に
風向・風速北北西 3m/s
視程1500m
天気現象もや
なし
18日10時 PKT ~ 18日12時 PKT に徐々に
風向・風速北西 4m/s
視程5000m
天気現象煙霧
なし
18日15時 PKT から
風向・風速西南西 5m/s
視程6000m
なし
TAF OPKC 171600Z 1718/1824 27006KT 5000 HZ NSC
TEMPO 1801/1805 34005KT 1500 BR NSC
BECMG 1805/1807 31007KT 5000 HZ NSC
FM181000 25010KT 6000 NSC